Purchase, New York
Current Conditions -  °F | °C
As of 6:56 AM on Wednesday 28 Jan 2015 (Local Time) from KHPN Reporting Station
Few Clouds Few Clouds  
Wind Chill:   Ceiling: Unl
Heat Index: 14°   Visibility: 10mi
Dew Point:   Wind: 13mph
Humidity: 56%   Direction: 310°NW
Pressure: 29.92"   Gusts: NA
Location:  41.04°N, 73.71°W
Report Text: KHPN 281156Z 31011KT 10SM FEW080 M10/M17 A2992 RMK AO2 SLP147 T11001172 11094 21100 53021
Loading
Personal Weather Stations






























Interactive Weather Map New forecast layout! Learn more

10-Day Weather Forecast

Advertisements
Track Severe Weather on mobile